Time;durP1;ratioP1;P1;durP2;ratioP2;P2;SDS_P1;SDS_P2;PMS_P1;PMS_P2;Temp;Humidity;BMP_temperature;BMP_pressure;BME280_temperature;BME280_humidity;BME280_pressure;Samples;Min_cycle;Max_cycle;Signal;HPM_P1;HPM_P2
2022/09/23 00:01:15;;;;;;;;;12.50;12.00;;;;;17.80;42.38;101134.13;4998906;28;45643;-55
2022/09/23 00:03:41;;;;;;;;;9.20;9.20;;;;;17.78;42.30;101132.69;5014627;28;45377;-54
2022/09/23 00:06:09;;;;;;;;;9.20;9.20;;;;;17.75;42.12;101128.47;5016225;28;45610;-53
2022/09/23 00:08:35;;;;;;;;;8.60;8.20;;;;;17.72;42.25;101129.81;5014170;28;46841;-54
2022/09/23 00:11:05;;;;;;;;;9.75;9.75;;;;;17.60;42.11;101092.97;5014310;28;45282;-52
2022/09/23 00:13:30;;;;;;;;;10.80;9.20;;;;;17.77;42.17;101126.28;5015555;28;45485;-54
2022/09/23 00:15:56;;;;;;;;;12.00;10.25;;;;;17.77;41.84;101128.22;4998066;28;45562;-54
2022/09/23 00:18:21;;;;;;;;;9.75;8.25;;;;;17.75;42.13;101120.16;5015510;28;45494;-55
2022/09/23 00:20:47;;;;;;;;;11.50;8.50;;;;;17.68;42.16;101117.56;5015633;28;45330;-56
2022/09/23 00:23:13;;;;;;;;;10.20;9.80;;;;;17.32;42.60;101072.50;5015994;28;45770;-51
2022/09/23 00:25:39;;;;;;;;;9.00;7.25;;;;;17.56;42.67;101112.03;5015469;28;45361;-55
2022/09/23 00:28:04;;;;;;;;;10.50;9.25;;;;;17.60;42.68;101104.06;5034574;28;46097;-55
2022/09/23 00:30:31;;;;;;;;;9.75;9.75;;;;;17.62;42.36;101104.66;5017233;28;45441;-55
2022/09/23 00:32:56;;;;;;;;;10.20;8.00;;;;;17.57;42.33;101105.41;5035251;28;45380;-55
2022/09/23 00:35:22;;;;;;;;;9.00;9.00;;;;;17.44;42.50;101086.28;5035305;28;45732;-53
2022/09/23 00:37:47;;;;;;;;;8.25;8.00;;;;;17.45;42.41;101086.06;5034834;28;45385;-54
2022/09/23 00:40:13;;;;;;;;;11.50;9.75;;;;;17.47;42.64;101091.34;5017172;28;45571;-53
2022/09/23 00:42:45;;;;;;;;;12.00;8.75;;;;;17.44;42.71;101095.47;5034820;28;45352;-54
2022/09/23 00:45:11;;;;;;;;;8.00;7.20;;;;;17.40;43.18;101088.72;5017650;28;45487;-55
2022/09/23 00:47:53;;;;;;;;;8.25;8.25;;;;;17.35;43.21;101080.34;5000410;28;46474;-54
2022/09/23 00:50:29;;;;;;;;;9.40;9.40;;;;;17.21;42.73;101054.84;5033263;28;45457;-53
2022/09/23 00:52:58;;;;;;;;;10.20;9.60;;;;;17.44;42.86;101101.03;5014822;28;45303;-55
2022/09/23 00:55:52;;;;;;;;;10.20;10.20;;;;;17.40;42.98;101094.28;4997640;28;45545;-53
2022/09/23 00:58:20;;;;;;;;;11.20;8.40;;;;;17.40;43.12;101090.69;5011429;28;45394;-54
2022/09/23 01:00:45;;;;;;;;;12.40;10.60;;;;;16.91;43.24;101012.38;4997332;28;45503;-54
2022/09/23 01:03:11;;;;;;;;;8.25;8.25;;;;;17.29;43.28;101087.69;4997143;28;45462;-54
2022/09/23 01:05:38;;;;;;;;;10.25;9.25;;;;;17.22;43.50;101088.97;4997228;28;45586;-52
2022/09/23 01:08:04;;;;;;;;;11.20;11.20;;;;;16.95;44.14;101059.84;5014464;28;45620;-55
2022/09/23 01:10:34;;;;;;;;;8.50;8.50;;;;;17.15;43.96;101084.41;5014451;28;45458;-55
2022/09/23 01:13:07;;;;;;;;;8.00;8.00;;;;;17.21;43.72;101088.13;4981023;28;45364;-55
2022/09/23 01:15:49;;;;;;;;;12.80;8.20;;;;;16.85;44.00;101045.81;4997369;28;45301;-53
2022/09/23 01:18:35;;;;;;;;;8.40;8.40;;;;;17.07;44.26;101090.34;4981583;28;46499;-54
2022/09/23 01:21:14;;;;;;;;;8.60;8.60;;;;;17.05;44.31;101087.81;4996931;28;45333;-55
2022/09/23 01:23:48;;;;;;;;;10.20;9.20;;;;;17.07;44.11;101082.88;4981204;28;45415;-55
2022/09/23 01:26:14;;;;;;;;;9.20;9.20;;;;;16.76;44.30;101017.63;4996727;28;45709;-55
2022/09/23 01:28:54;;;;;;;;;8.25;7.25;;;;;17.14;44.26;101076.34;4998003;28;45700;-55
2022/09/23 01:31:29;;;;;;;;;8.20;7.40;;;;;17.12;43.89;101070.19;4998031;28;45374;-54
2022/09/23 01:33:57;;;;;;;;;11.60;10.00;;;;;17.14;43.90;101066.06;4980743;28;45284;-52
2022/09/23 01:36:23;;;;;;;;;10.20;10.20;;;;;17.17;43.99;101065.59;4996707;28;45392;-55
2022/09/23 01:38:57;;;;;;;;;9.20;8.80;;;;;17.14;44.14;101045.81;4996744;28;46588;-52
2022/09/23 01:41:46;;;;;;;;;10.40;9.60;;;;;17.16;43.98;101052.81;4996635;28;45362;-52
2022/09/23 01:44:33;;;;;;;;;6.40;6.40;;;;;17.07;43.82;101045.97;4998238;28;45403;-54
2022/09/23 01:47:06;;;;;;;;;7.80;6.00;;;;;17.09;43.98;101051.28;4996758;28;45619;-55
2022/09/23 01:49:40;;;;;;;;;7.40;7.20;;;;;16.96;43.92;101044.06;4996213;28;46653;-51
2022/09/23 01:52:08;;;;;;;;;8.00;8.00;;;;;17.05;44.04;101048.16;4996442;28;45476;-54
2022/09/23 01:54:39;;;;;;;;;5.60;5.60;;;;;17.05;44.05;101060.09;4996426;28;45245;-54
2022/09/23 01:57:14;;;;;;;;;7.40;7.20;;;;;17.06;44.15;101060.91;4980556;28;45411;-52
2022/09/23 01:59:42;;;;;;;;;5.80;5.80;;;;;17.06;44.15;101069.25;4996497;28;46571;-54
2022/09/23 02:02:09;;;;;;;;;6.80;6.00;;;;;16.89;44.24;101031.19;4962484;28;45418;-54
2022/09/23 02:04:50;;;;;;;;;9.80;7.40;;;;;17.10;44.26;101067.66;5016264;28;45280;-55
2022/09/23 02:07:39;;;;;;;;;9.40;7.80;;;;;17.13;44.18;101066.34;5016368;28;45449;-55
2022/09/23 02:10:34;;;;;;;;;7.20;6.40;;;;;17.14;44.14;101057.75;5016200;28;45661;-54
2022/09/23 02:13:05;;;;;;;;;7.20;6.40;;;;;17.09;43.89;101057.66;5014015;28;45309;-52
2022/09/23 02:15:34;;;;;;;;;10.00;8.60;;;;;17.13;43.94;101055.25;5000390;28;45458;-53
2022/09/23 02:18:02;;;;;;;;;7.40;7.00;;;;;17.05;44.06;101054.56;5016411;28;45292;-55
2022/09/23 02:20:29;;;;;;;;;5.80;5.80;;;;;17.11;43.96;101055.47;4999254;28;45894;-55
2022/09/23 02:23:00;;;;;;;;;5.40;5.40;;;;;17.12;44.21;101061.88;5015634;28;45520;-55
2022/09/23 02:25:34;;;;;;;;;7.20;6.00;;;;;16.96;43.91;101033.81;5017328;28;45274;-55
2022/09/23 02:28:13;;;;;;;;;7.00;6.00;;;;;16.75;44.10;101014.00;5036292;28;45229;-55
2022/09/23 02:30:48;;;;;;;;;7.40;6.80;;;;;17.03;44.06;101051.16;5003676;28;45761;-53
2022/09/23 02:33:20;;;;;;;;;5.00;5.00;;;;;17.04;44.31;101052.03;5002713;28;45516;-53
2022/09/23 02:36:01;;;;;;;;;5.20;5.20;;;;;16.66;44.28;100988.63;5018045;28;45278;-54
2022/09/23 02:38:37;;;;;;;;;9.00;6.80;;;;;17.01;44.24;101046.94;5019081;28;45510;-55
2022/09/23 02:41:15;;;;;;;;;8.00;7.00;;;;;17.01;44.79;101058.88;5018729;28;48355;-51
2022/09/23 02:43:55;;;;;;;;;8.40;7.40;;;;;17.00;44.41;101054.41;5020736;28;45319;-53
2022/09/23 02:46:20;;;;;;;;;6.80;6.80;;;;;16.98;44.57;101048.28;4986674;28;45435;-55
2022/09/23 02:48:55;;;;;;;;;9.00;7.75;;;;;16.74;44.81;101011.47;5036634;28;45417;-55
2022/09/23 02:51:24;;;;;;;;;9.40;7.40;;;;;16.80;44.96;101036.28;5013693;28;46145;-54
2022/09/23 02:53:50;;;;;;;;;9.60;9.60;;;;;16.73;45.03;101024.50;4998885;28;45292;-54
2022/09/23 02:56:20;;;;;;;;;8.60;8.60;;;;;16.86;44.97;101034.47;5016872;28;45627;-53
2022/09/23 02:58:47;;;;;;;;;8.00;8.00;;;;;16.74;44.71;101000.41;4999410;28;45369;-55
2022/09/23 03:01:30;;;;;;;;;7.40;5.20;;;;;16.96;44.48;101030.22;4998875;28;46463;-55
2022/09/23 03:04:14;;;;;;;;;9.00;8.20;;;;;16.93;44.52;101026.00;4983168;28;45485;-52
2022/09/23 03:06:59;;;;;;;;;6.00;6.00;;;;;16.96;44.50;101024.66;4983656;28;45458;-54
2022/09/23 03:09:29;;;;;;;;;6.20;6.20;;;;;16.96;44.20;101028.25;4998947;28;45487;-55
2022/09/23 03:12:29;;;;;;;;;5.40;5.40;;;;;16.90;44.55;101024.56;4998922;28;45394;-54
2022/09/23 03:15:13;;;;;;;;;4.40;4.40;;;;;16.82;44.39;101027.75;5016160;28;45533;-55
2022/09/23 03:17:43;;;;;;;;;6.80;5.80;;;;;16.60;44.58;100984.06;5016523;28;45631;-53
2022/09/23 03:20:11;;;;;;;;;7.20;6.20;;;;;16.79;44.68;101031.00;5016291;28;45336;-54
2022/09/23 03:22:50;;;;;;;;;5.80;5.80;;;;;16.71;44.47;101006.44;4998345;28;45943;-52
2022/09/23 03:25:18;;;;;;;;;9.80;7.20;;;;;16.75;45.00;101021.50;4982835;28;45506;-54
2022/09/23 03:27:44;;;;;;;;;7.00;7.00;;;;;16.80;44.67;101021.59;4998532;28;45552;-55
2022/09/23 03:30:10;;;;;;;;;7.00;7.00;;;;;16.77;44.60;101022.91;4998363;28;45572;-53
2022/09/23 03:32:36;;;;;;;;;7.40;5.40;;;;;16.81;44.83;101028.81;4981713;28;46351;-54
2022/09/23 03:35:03;;;;;;;;;6.60;6.60;;;;;16.49;45.03;100980.25;4982340;28;45822;-52
2022/09/23 03:37:36;;;;;;;;;5.60;4.00;;;;;16.67;45.03;101031.03;4998277;28;45344;-52
2022/09/23 03:40:42;;;;;;;;;6.20;6.20;;;;;16.60;45.12;101027.56;4998762;28;45391;-55
2022/09/23 03:43:08;;;;;;;;;5.40;5.00;;;;;16.62;45.27;101031.78;4934738;28;45540;-54
2022/09/23 03:45:35;;;;;;;;;6.00;6.00;;;;;16.65;45.09;101031.28;5001541;28;45629;-55
2022/09/23 03:48:01;;;;;;;;;6.80;6.80;;;;;16.44;45.36;101004.25;5015451;28;45420;-53
2022/09/23 03:50:26;;;;;;;;;6.25;6.25;;;;;16.67;45.37;101037.41;4998065;28;45441;-53
2022/09/23 03:52:52;;;;;;;;;7.00;7.00;;;;;16.67;45.13;101036.59;4980440;28;46706;-55
2022/09/23 03:55:18;;;;;;;;;7.25;5.00;;;;;16.65;45.20;101036.81;4995922;28;45392;-53
2022/09/23 03:57:44;;;;;;;;;7.25;6.75;;;;;16.65;45.10;101031.28;4995851;28;45322;-55
2022/09/23 04:00:10;;;;;;;;;8.00;6.50;;;;;16.62;45.30;101029.00;4978499;28;45546;-55
2022/09/23 04:02:36;;;;;;;;;7.60;7.60;;;;;16.51;45.23;101027.09;4995275;28;46825;-56
2022/09/23 04:05:01;;;;;;;;;6.00;6.00;;;;;16.44;44.89;101018.91;4996100;28;45231;-54
2022/09/23 04:07:27;;;;;;;;;5.75;5.00;;;;;16.50;45.00;101023.47;4977919;28;45410;-54
2022/09/23 04:09:52;;;;;;;;;5.75;5.50;;;;;16.53;45.55;101047.94;4996262;28;45537;-52
2022/09/23 04:12:18;;;;;;;;;6.25;6.25;;;;;16.28;45.40;101017.78;4995521;28;46650;-53
2022/09/23 04:14:43;;;;;;;;;7.75;7.25;;;;;16.42;45.37;101045.22;4978023;28;45407;-55
2022/09/23 04:17:09;;;;;;;;;7.00;6.00;;;;;16.27;45.48;101007.75;4995929;28;45318;-54
2022/09/23 04:19:35;;;;;;;;;5.50;5.50;;;;;16.42;45.32;101034.97;4995610;28;45637;-53
2022/09/23 04:22:00;;;;;;;;;11.25;7.25;;;;;16.10;45.54;100983.59;4995413;28;46621;-52
2022/09/23 04:24:26;;;;;;;;;8.75;6.25;;;;;16.46;45.30;101040.84;4995106;28;45378;-53
2022/09/23 04:26:52;;;;;;;;;5.50;5.50;;;;;16.48;45.58;101036.75;4978044;28;45591;-51
2022/09/23 04:29:18;;;;;;;;;6.60;6.60;;;;;16.50;45.41;101036.50;4995682;28;45474;-54
2022/09/23 04:31:44;;;;;;;;;7.20;6.20;;;;;16.39;45.53;101018.84;4977597;28;46398;-54
2022/09/23 04:34:09;;;;;;;;;6.50;6.50;;;;;16.45;45.02;101034.47;4977876;28;45365;-52
2022/09/23 04:36:35;;;;;;;;;5.25;5.25;;;;;16.40;45.15;101028.81;4995497;28;45372;-53
2022/09/23 04:39:00;;;;;;;;;5.25;5.25;;;;;16.40;45.23;101040.72;4995856;28;45492;-51
2022/09/23 04:41:26;;;;;;;;;7.00;6.00;;;;;16.29;45.49;101016.69;4977483;28;47126;-52
2022/09/23 04:43:51;;;;;;;;;6.75;5.75;;;;;16.35;45.24;101032.34;4961518;28;45343;-55
2022/09/23 04:46:17;;;;;;;;;6.75;6.75;;;;;16.39;45.17;101029.91;4978349;28;45325;-54
2022/09/23 04:48:42;;;;;;;;;9.00;9.00;;;;;16.37;45.55;101021.84;4977986;28;45506;-53
2022/09/23 04:51:09;;;;;;;;;6.75;6.00;;;;;16.17;45.35;100983.47;4997784;28;46493;-51
2022/09/23 04:53:35;;;;;;;;;7.00;5.20;;;;;16.40;45.11;101020.53;4997103;28;45461;-53
2022/09/23 04:56:06;;;;;;;;;6.20;5.80;;;;;16.19;45.21;100974.91;5015393;28;45493;-52
2022/09/23 04:58:33;;;;;;;;;5.00;5.00;;;;;16.34;45.35;101016.78;4996719;28;45341;-54
2022/09/23 05:01:13;;;;;;;;;6.00;6.00;;;;;15.83;45.12;100964.72;5015141;28;45691;-53
2022/09/23 05:03:39;;;;;;;;;9.00;7.20;;;;;16.24;45.62;101017.41;5014951;28;45401;-55
2022/09/23 05:06:06;;;;;;;;;6.40;5.80;;;;;16.25;45.29;101013.56;4997178;28;45270;-55
2022/09/23 05:08:32;;;;;;;;;6.40;6.00;;;;;16.25;45.46;101012.72;5015369;28;45411;-52
2022/09/23 05:10:58;;;;;;;;;8.50;7.50;;;;;16.26;45.78;101006.94;5014835;28;45592;-54
2022/09/23 05:13:24;;;;;;;;;7.40;7.40;;;;;16.20;45.55;100993.22;5014693;28;45295;-51
2022/09/23 05:15:56;;;;;;;;;11.00;9.75;;;;;16.13;45.96;100980.34;5015073;28;45476;-55
2022/09/23 05:18:22;;;;;;;;;8.80;8.80;;;;;16.19;46.25;101005.38;4997336;28;45420;-54
2022/09/23 05:20:53;;;;;;;;;10.75;9.50;;;;;16.16;46.40;101003.94;5014463;28;45304;-54
2022/09/23 05:23:18;;;;;;;;;7.60;6.20;;;;;16.18;46.44;101009.25;4996910;28;45757;-53
2022/09/23 05:25:44;;;;;;;;;9.75;8.25;;;;;16.14;46.49;101017.19;5014576;28;45499;-53
2022/09/23 05:28:09;;;;;;;;;7.00;7.00;;;;;16.18;45.98;101003.69;4996797;28;45617;-54
2022/09/23 05:30:35;;;;;;;;;8.50;6.00;;;;;16.00;45.93;100972.28;4996516;28;46043;-54
2022/09/23 05:33:01;;;;;;;;;7.25;6.75;;;;;16.20;46.22;100995.97;4996176;28;45773;-54
2022/09/23 05:35:27;;;;;;;;;7.40;6.00;;;;;16.17;46.01;101002.03;4997065;28;45412;-53
2022/09/23 05:37:52;;;;;;;;;8.00;7.00;;;;;16.23;45.97;101012.94;5014224;28;45727;-51
2022/09/23 05:40:18;;;;;;;;;9.00;7.25;;;;;16.19;45.97;101008.16;4980165;28;45716;-51
2022/09/23 05:42:43;;;;;;;;;8.75;7.50;;;;;16.21;45.79;101011.50;5014200;28;45296;-53
2022/09/23 05:45:09;;;;;;;;;7.50;7.50;;;;;16.18;46.03;101010.09;5014172;28;45435;-53
2022/09/23 05:47:35;;;;;;;;;6.75;6.00;;;;;16.11;45.86;101015.75;4996911;28;45432;-54
2022/09/23 05:50:01;;;;;;;;;8.00;6.75;;;;;16.17;45.76;101018.63;4995894;28;45783;-51
2022/09/23 05:52:26;;;;;;;;;7.20;6.20;;;;;15.99;45.84;100978.91;4983338;28;46614;-54
2022/09/23 05:54:52;;;;;;;;;7.00;6.00;;;;;16.22;45.56;101010.44;4994158;28;45410;-54
2022/09/23 05:57:18;;;;;;;;;7.75;6.75;;;;;16.26;45.89;101023.56;4976830;28;45424;-55
2022/09/23 05:59:46;;;;;;;;;9.60;5.80;;;;;16.23;45.62;101009.34;4993896;28;47063;-53
2022/09/23 06:02:12;;;;;;;;;7.40;7.40;;;;;16.11;45.71;100989.97;4993841;28;45472;-55
2022/09/23 06:04:37;;;;;;;;;8.00;7.00;;;;;16.03;45.94;100987.59;4994513;28;45810;-54
2022/09/23 06:07:03;;;;;;;;;6.75;6.75;;;;;16.12;45.86;100997.22;4976617;28;45462;-54
2022/09/23 06:09:29;;;;;;;;;11.25;8.25;;;;;16.13;46.44;101013.56;4994244;28;46317;-52
2022/09/23 06:11:54;;;;;;;;;7.00;6.00;;;;;16.12;46.20;101020.19;4997308;28;45447;-54
2022/09/23 06:14:20;;;;;;;;;10.50;9.50;;;;;16.05;46.31;101005.63;4997394;28;45462;-54
2022/09/23 06:16:45;;;;;;;;;6.25;6.25;;;;;15.88;46.61;100982.50;4979857;28;45359;-53
2022/09/23 06:19:11;;;;;;;;;12.75;10.75;;;;;16.10;46.68;101011.28;4996956;28;46032;-53
2022/09/23 06:21:37;;;;;;;;;11.75;11.00;;;;;16.12;46.58;101003.56;4997186;28;45417;-51
2022/09/23 06:24:03;;;;;;;;;9.00;8.00;;;;;15.98;46.75;100991.94;4979570;28;45593;-54
2022/09/23 06:26:32;;;;;;;;;7.50;7.00;;;;;15.86;46.83;100967.00;4997503;28;45339;-52
2022/09/23 06:28:57;;;;;;;;;12.00;10.00;;;;;16.06;46.88;100999.00;4979797;28;46185;-54
2022/09/23 06:31:23;;;;;;;;;12.00;12.00;;;;;16.20;46.81;101023.66;4997168;28;45340;-54
2022/09/23 06:33:49;;;;;;;;;12.75;8.75;;;;;16.22;47.08;101030.66;4997163;28;45296;-54
2022/09/23 06:36:14;;;;;;;;;12.75;10.00;;;;;16.22;47.08;101029.84;4979246;28;45616;-54
2022/09/23 06:38:43;;;;;;;;;11.50;10.25;;;;;16.08;46.93;100996.00;4996842;28;46012;-53
2022/09/23 06:41:09;;;;;;;;;12.00;12.00;;;;;16.21;47.24;101025.34;4997076;28;45442;-55
2022/09/23 06:43:34;;;;;;;;;12.25;12.25;;;;;16.24;47.11;101027.66;4979041;28;45298;-54
2022/09/23 06:46:02;;;;;;;;;11.25;10.25;;;;;16.18;47.14;101026.72;4997198;28;45270;-55
2022/09/23 06:48:28;;;;;;;;;9.80;9.80;;;;;16.19;47.25;101022.84;4978898;28;45889;-52
2022/09/23 06:50:53;;;;;;;;;12.25;11.00;;;;;16.17;46.88;101015.88;4976738;28;45850;-50
2022/09/23 06:53:22;;;;;;;;;9.50;9.50;;;;;15.97;46.95;100981.94;5016594;28;45387;-51
2022/09/23 06:55:48;;;;;;;;;14.80;12.20;;;;;16.15;47.16;101018.88;4999171;28;45426;-53
2022/09/23 06:58:14;;;;;;;;;13.75;10.50;;;;;15.97;46.94;100990.22;5016626;28;45405;-54
2022/09/23 07:00:39;;;;;;;;;11.50;11.00;;;;;16.22;46.76;101024.28;4998474;28;45436;-51
2022/09/23 07:03:08;;;;;;;;;12.00;11.00;;;;;16.03;46.82;100980.13;5016589;28;45353;-55
2022/09/23 07:05:34;;;;;;;;;11.00;10.00;;;;;16.22;46.49;101014.03;5016326;28;45750;-57
2022/09/23 07:08:00;;;;;;;;;10.20;10.00;;;;;16.13;46.81;100996.94;5016754;28;46275;-56
2022/09/23 07:10:28;;;;;;;;;10.50;10.00;;;;;16.16;46.44;101006.69;5016232;28;45368;-55
2022/09/23 07:12:54;;;;;;;;;11.60;11.40;;;;;16.03;46.86;100984.81;5016536;28;45394;-54
2022/09/23 07:15:20;;;;;;;;;15.40;11.40;;;;;16.23;46.71;101018.50;5016817;28;45221;-55
2022/09/23 07:17:45;;;;;;;;;14.50;13.75;;;;;16.11;46.81;100989.97;5015889;28;45234;-53
2022/09/23 07:20:11;;;;;;;;;16.50;15.50;;;;;16.24;46.65;101008.25;5016179;28;45401;-55
2022/09/23 07:22:37;;;;;;;;;14.00;13.00;;;;;16.29;46.70;101007.53;5015947;28;45563;-53
2022/09/23 07:25:03;;;;;;;;;14.00;14.00;;;;;16.25;47.27;101012.72;4998520;28;45345;-55
2022/09/23 07:27:28;;;;;;;;;14.80;12.40;;;;;16.30;47.38;101015.59;5015741;28;45434;-55
2022/09/23 07:29:54;;;;;;;;;16.25;14.00;;;;;16.33;46.94;101017.88;5015715;28;45357;-50
2022/09/23 07:32:20;;;;;;;;;19.00;13.25;;;;;16.14;47.39;100983.97;4982482;28;45423;-52
2022/09/23 07:34:46;;;;;;;;;18.80;16.20;;;;;16.35;47.09;101017.63;4998108;28;45570;-55
2022/09/23 07:37:15;;;;;;;;;15.00;15.00;;;;;16.32;47.10;101018.97;5015942;28;45369;-55
2022/09/23 07:39:42;;;;;;;;;20.60;13.60;;;;;16.29;47.06;101027.78;5015514;28;45582;-55
2022/09/23 07:42:08;;;;;;;;;17.20;13.60;;;;;16.34;46.99;101032.56;4966971;28;45382;-54
2022/09/23 07:44:34;;;;;;;;;12.75;11.25;;;;;16.37;46.74;101021.84;5021776;28;45402;-51
2022/09/23 07:46:59;;;;;;;;;15.25;12.25;;;;;16.44;46.22;101018.09;5015681;28;46095;-54
2022/09/23 07:49:26;;;;;;;;;13.00;13.00;;;;;16.47;46.33;101020.38;5015512;28;45530;-55
2022/09/23 07:51:51;;;;;;;;;14.60;13.00;;;;;16.45;46.17;101034.47;4970917;28;45354;-56
2022/09/23 07:54:17;;;;;;;;;14.50;12.75;;;;;16.45;46.41;101030.84;4987301;28;45363;-55
2022/09/23 07:56:43;;;;;;;;;13.80;12.00;;;;;16.48;46.32;101033.97;4993280;28;47193;-56
2022/09/23 07:59:16;;;;;;;;;18.25;17.75;;;;;16.01;46.31;100962.91;4995763;28;45395;-54
2022/09/23 08:01:44;;;;;;;;;20.60;13.60;;;;;16.46;46.19;101018.69;4995793;28;45331;-56
2022/09/23 08:04:15;;;;;;;;;14.40;12.00;;;;;16.60;46.48;101050.56;4995712;28;46008;-54
2022/09/23 08:06:41;;;;;;;;;14.80;13.40;;;;;16.67;46.28;101048.50;4995454;28;46795;-50
2022/09/23 08:09:07;;;;;;;;;17.80;15.20;;;;;16.72;46.09;101049.69;5002695;28;46502;-53
2022/09/23 08:11:34;;;;;;;;;14.75;12.75;;;;;16.76;46.19;101051.72;5013860;28;45405;-50
2022/09/23 08:13:59;;;;;;;;;14.00;12.60;;;;;16.72;46.09;101028.38;5014110;28;45466;-56
2022/09/23 08:16:25;;;;;;;;;14.75;13.50;;;;;16.85;46.02;101060.50;5009210;28;45554;-58
2022/09/23 08:18:50;;;;;;;;;19.50;16.25;;;;;16.84;46.33;101050.50;5011780;28;45404;-58
2022/09/23 08:21:19;;;;;;;;;16.75;13.25;;;;;16.82;46.26;101061.00;5013043;28;45446;-58
2022/09/23 08:23:45;;;;;;;;;15.00;15.00;;;;;16.76;46.38;101054.50;5012631;28;45445;-58
2022/09/23 08:26:11;;;;;;;;;14.00;14.00;;;;;16.87;46.40;101063.84;5014875;28;45736;-57
2022/09/23 08:28:36;;;;;;;;;14.50;13.50;;;;;16.97;45.88;101060.44;5033694;28;45454;-57
2022/09/23 08:31:02;;;;;;;;;14.00;11.50;;;;;17.01;45.91;101060.78;5033370;28;45518;-58
2022/09/23 08:33:27;;;;;;;;;16.75;15.00;;;;;17.10;45.60;101052.94;5032830;28;45756;-56
2022/09/23 08:35:57;;;;;;;;;22.50;13.75;;;;;17.15;45.44;101044.72;5003250;28;45956;-57
2022/09/23 08:38:23;;;;;;;;;20.00;16.80;;;;;17.20;45.24;101051.19;5016049;28;45386;-56
2022/09/23 08:40:49;;;;;;;;;14.00;14.00;;;;;17.23;45.44;101043.50;5033612;28;45326;-56
2022/09/23 08:43:27;;;;;;;;;13.25;12.00;;;;;17.28;45.26;101046.38;5015823;28;45434;-58
2022/09/23 08:45:54;;;;;;;;;13.00;12.00;;;;;17.38;45.20;101046.53;5015252;28;46318;-55
2022/09/23 08:48:41;;;;;;;;;4.20;2.60;;;;;17.37;45.07;101044.00;5033381;28;45573;-55
2022/09/23 08:51:10;;;;;;;;;14.80;13.00;;;;;17.33;45.29;101046.44;5013905;28;45419;-54
2022/09/23 08:53:35;;;;;;;;;13.20;13.00;;;;;17.37;45.49;101038.44;5015625;28;45475;-56
2022/09/23 08:56:06;;;;;;;;;13.75;13.00;;;;;17.42;45.42;101042.19;5013216;28;45435;-58
2022/09/23 08:58:53;;;;;;;;;17.00;15.00;;;;;17.52;45.44;101046.22;4995355;28;45458;-55
2022/09/23 09:01:32;;;;;;;;;18.20;14.00;;;;;17.33;45.03;101018.69;5012040;28;45773;-55
2022/09/23 09:04:00;;;;;;;;;20.80;18.40;;;;;17.59;45.04;101047.72;5011199;28;45854;-55
2022/09/23 09:06:48;;;;;;;;;23.00;19.40;;;;;17.58;44.91;101046.06;5015248;28;46095;-55
2022/09/23 09:09:26;;;;;;;;;15.60;15.40;;;;;17.64;44.81;101048.88;4999089;28;45342;-58
2022/09/23 09:11:57;;;;;;;;;18.00;15.80;;;;;17.46;44.52;100996.16;5015412;28;45536;-56
2022/09/23 09:14:36;;;;;;;;;17.40;16.60;;;;;17.78;44.72;101044.72;5031313;28;45289;-56
2022/09/23 09:17:06;;;;;;;;;13.60;13.40;;;;;17.76;44.61;101041.31;5032396;28;45887;-56
2022/09/23 09:19:56;;;;;;;;;17.60;13.00;;;;;17.81;44.82;101037.78;5032685;28;45481;-57
2022/09/23 09:22:33;;;;;;;;;20.80;14.20;;;;;17.88;44.53;101036.53;5022290;28;45481;-58
2022/09/23 09:25:04;;;;;;;;;14.60;11.40;;;;;17.83;43.84;101016.19;5016636;28;45382;-58
2022/09/23 09:27:30;;;;;;;;;11.00;10.40;;;;;17.89;43.93;101006.84;5013397;28;45634;-57
2022/09/23 09:29:55;;;;;;;;;18.25;14.25;;;;;18.15;44.23;101029.47;4999236;28;45497;-58
2022/09/23 09:32:46;;;;;;;;;14.00;14.00;;;;;17.95;43.62;100983.59;5016143;28;45544;-56
2022/09/23 09:35:49;;;;;;;;;19.80;15.40;;;;;18.38;43.68;101035.88;4998294;28;45854;-58
2022/09/23 09:38:15;;;;;;;;;30.60;24.40;;;;;18.46;43.64;101026.25;4954382;28;45466;-55
2022/09/23 09:40:46;;;;;;;;;42.40;28.40;;;;;18.48;43.82;101011.00;4951282;28;45344;-59
2022/09/23 09:43:24;;;;;;;;;20.20;17.40;;;;;18.62;43.63;101033.66;5013386;28;45383;-59
2022/09/23 09:46:23;;;;;;;;;23.40;19.20;;;;;18.76;43.77;101030.47;4998094;28;45487;-59
2022/09/23 09:48:55;;;;;;;;;20.20;16.60;;;;;18.78;43.40;101023.56;4984291;28;46664;-60
2022/09/23 09:51:26;;;;;;;;;20.80;14.60;;;;;18.87;43.89;101031.44;5003560;28;45349;-59
2022/09/23 09:53:52;;;;;;;;;20.20;16.60;;;;;18.94;43.44;101024.56;5018116;28;45538;-59
2022/09/23 09:56:30;;;;;;;;;20.00;18.40;;;;;19.00;43.72;101027.41;4989160;28;45431;-59
2022/09/23 09:59:12;;;;;;;;;20.40;19.60;;;;;19.01;43.53;101029.94;4996123;28;45996;-58
2022/09/23 10:01:37;;;;;;;;;20.40;18.20;;;;;19.10;42.93;101028.38;4979103;28;45444;-58
2022/09/23 10:04:28;;;;;;;;;20.25;17.25;;;;;19.17;43.17;101025.41;4993063;28;45446;-58
2022/09/23 10:07:14;;;;;;;;;19.40;17.00;;;;;19.07;43.67;100997.47;4998548;28;45624;-59
2022/09/23 10:09:49;;;;;;;;;18.80;17.40;;;;;19.21;43.21;101018.19;5015813;28;45658;-59
2022/09/23 10:12:25;;;;;;;;;19.60;18.40;;;;;19.28;42.57;101015.22;4998284;28;45536;-58
2022/09/23 10:14:54;;;;;;;;;20.00;16.20;;;;;19.23;42.26;100995.69;4998408;28;45495;-60
2022/09/23 10:17:21;;;;;;;;;16.00;16.00;;;;;19.37;42.59;101015.53;4998077;28;46037;-59
2022/09/23 10:19:49;;;;;;;;;16.80;15.60;;;;;19.40;41.81;101016.97;4981908;28;47014;-58
2022/09/23 10:22:23;;;;;;;;;15.80;14.80;;;;;19.42;42.57;101014.78;5016039;28;45494;-59
2022/09/23 10:24:50;;;;;;;;;15.00;11.60;;;;;19.44;41.57;101007.84;4998383;28;45712;-59
2022/09/23 10:27:16;;;;;;;;;14.00;12.60;;;;;19.46;41.86;101010.34;5015652;28;45427;-57
2022/09/23 10:29:49;;;;;;;;;16.80;14.80;;;;;19.24;41.63;100975.09;5001149;28;45496;-59
2022/09/23 10:32:24;;;;;;;;;13.40;12.80;;;;;19.28;41.82;100980.97;5017728;28;45430;-57
2022/09/23 10:35:00;;;;;;;;;14.40;14.40;;;;;19.49;41.66;101001.47;5035230;28;45520;-61
2022/09/23 10:37:36;;;;;;;;;19.00;19.00;;;;;19.47;41.64;101004.50;5035485;28;45455;-59
2022/09/23 10:46:40;;;;;;;;;15.00;14.00;;;;;19.59;42.40;100989.56;4995478;28;45805;-60
2022/09/23 10:49:43;;;;;;;;;13.00;12.20;;;;;19.77;41.56;101002.22;4980748;28;45717;-58
2022/09/23 10:52:22;;;;;;;;;15.20;13.20;;;;;19.88;41.27;100995.63;4980873;28;45784;-59
2022/09/23 10:54:51;;;;;;;;;17.00;14.40;;;;;20.02;40.22;100996.00;4999174;28;45370;-59
2022/09/23 10:57:40;;;;;;;;;13.60;13.60;;;;;20.15;40.96;100989.13;5015450;28;45353;-59
2022/09/23 11:00:22;;;;;;;;;14.40;11.80;;;;;20.37;40.61;100984.47;4998792;28;45449;-59
2022/09/23 11:02:56;;;;;;;;;14.40;14.40;;;;;20.53;40.01;100985.34;4998895;28;45365;-59
2022/09/23 11:05:45;;;;;;;;;17.80;14.60;;;;;20.62;39.75;100967.00;4998245;28;45395;-61
2022/09/23 11:08:26;;;;;;;;;16.00;15.00;;;;;20.60;40.13;100969.25;4984104;28;45550;-59
2022/09/23 11:11:19;;;;;;;;;15.40;14.20;;;;;20.33;39.11;100959.09;5016364;28;45377;-61
2022/09/23 11:14:03;;;;;;;;;12.60;11.60;;;;;20.30;39.07;100962.44;5006040;28;46433;-58
2022/09/23 11:16:41;;;;;;;;;16.60;13.80;;;;;20.32;39.58;100965.78;5002125;28;50982;-62
2022/09/23 11:19:10;;;;;;;;;12.60;11.40;;;;;20.11;39.37;100937.81;4998076;28;45926;-60
2022/09/23 11:21:45;;;;;;;;;12.40;12.40;;;;;20.24;39.96;100972.72;4990489;28;45553;-56
2022/09/23 11:24:33;;;;;;;;;15.40;12.60;;;;;20.10;38.65;100965.94;5004740;28;46092;-56
2022/09/23 11:27:11;;;;;;;;;12.60;12.00;;;;;19.98;38.61;100943.88;4975645;28;45376;-57
2022/09/23 11:29:44;;;;;;;;;18.00;15.20;;;;;20.18;38.51;100960.69;5004448;28;45435;-56
2022/09/23 11:32:26;;;;;;;;;14.80;13.20;;;;;20.35;39.10;100956.03;5013584;28;45594;-53
2022/09/23 11:35:15;;;;;;;;;13.00;10.80;;;;;20.50;38.83;100949.69;5030510;28;46559;-57
2022/09/23 11:37:51;;;;;;;;;12.60;11.20;;;;;20.54;38.64;100950.81;5009612;28;46281;-56
2022/09/23 11:40:27;;;;;;;;;13.60;12.40;;;;;20.65;38.03;100951.69;4992650;28;45397;-59